createdAt,value
2018-09-13T00:00:57.035Z,10.93
2018-09-13T00:04:21.469Z,16.37
2018-09-13T00:07:45.863Z,13.20
2018-09-13T00:11:10.257Z,16.65
2018-09-13T00:14:34.627Z,15.32
2018-09-13T00:17:59.012Z,15.18
2018-09-13T00:21:23.459Z,15.20
2018-09-13T00:24:47.890Z,15.63
2018-09-13T00:28:12.327Z,13.88
2018-09-13T00:31:36.792Z,13.43
2018-09-13T00:35:01.206Z,14.18
2018-09-13T00:38:25.589Z,12.65
2018-09-13T00:41:49.971Z,13.18
2018-09-13T00:45:14.367Z,14.75
2018-09-13T00:48:38.834Z,14.00
2018-09-13T00:52:03.232Z,12.98
2018-09-13T00:55:27.708Z,14.95
2018-09-13T00:58:52.161Z,14.13
2018-09-13T01:02:16.539Z,14.13
2018-09-13T01:05:40.984Z,12.65
2018-09-13T01:09:08.496Z,13.72
2018-09-13T01:12:32.873Z,14.13
2018-09-13T01:15:57.337Z,15.50
2018-09-13T01:19:21.785Z,15.55
2018-09-13T01:22:46.244Z,15.35
2018-09-13T01:26:10.654Z,14.05
2018-09-13T01:29:35.084Z,13.28
2018-09-13T01:32:59.474Z,14.18
2018-09-13T01:36:23.899Z,13.90
2018-09-13T01:39:48.631Z,17.12
2018-09-13T01:43:13.060Z,24.18
2018-09-13T01:46:37.480Z,21.20
2018-09-13T01:50:01.882Z,25.95
2018-09-13T01:53:26.310Z,28.27
2018-09-13T01:56:50.733Z,25.57
2018-09-13T02:00:15.108Z,30.23
2018-09-13T02:03:39.520Z,26.85
2018-09-13T02:07:03.920Z,27.73
2018-09-13T02:10:28.353Z,26.45
2018-09-13T02:13:52.757Z,27.98
2018-09-13T02:17:17.145Z,30.65
2018-09-13T02:20:41.575Z,23.83
2018-09-13T02:24:06.078Z,27.70
2018-09-13T02:27:30.505Z,21.55
2018-09-13T02:30:54.915Z,27.05
2018-09-13T02:34:19.293Z,27.95
2018-09-13T02:37:43.723Z,26.35
2018-09-13T02:41:08.179Z,26.33
2018-09-13T02:44:32.637Z,24.37
2018-09-13T02:47:57.182Z,29.70
2018-09-13T02:51:21.563Z,23.85
2018-09-13T02:54:46.543Z,27.20
2018-09-13T02:58:10.927Z,30.10
2018-09-13T03:01:35.307Z,23.80
2018-09-13T03:04:59.766Z,27.62
2018-09-13T03:08:24.270Z,27.10
2018-09-13T03:11:48.592Z,26.12
2018-09-13T03:15:13.050Z,24.25
2018-09-13T03:18:37.507Z,28.35
2018-09-13T03:22:01.949Z,27.10
2018-09-13T03:25:26.321Z,24.75
2018-09-13T03:28:51.143Z,28.07
2018-09-13T03:32:15.555Z,24.07
2018-09-13T03:35:39.975Z,21.87
2018-09-13T03:39:06.532Z,19.87
2018-09-13T03:42:30.932Z,20.48
2018-09-13T03:45:55.356Z,22.07
2018-09-13T03:49:19.742Z,23.95
2018-09-13T03:52:44.136Z,24.98
2018-09-13T03:56:14.845Z,22.70
2018-09-13T03:59:39.285Z,27.10
2018-09-13T04:03:03.686Z,20.77
2018-09-13T04:06:28.156Z,20.72
2018-09-13T04:09:52.617Z,21.20
2018-09-13T04:13:17.021Z,23.30
2018-09-13T04:16:41.509Z,23.35
2018-09-13T04:20:05.966Z,19.73
2018-09-13T04:23:30.426Z,18.62
2018-09-13T04:26:54.819Z,19.85
2018-09-13T04:30:19.244Z,21.82
2018-09-13T04:33:43.609Z,17.70
2018-09-13T04:37:08.747Z,16.42
2018-09-13T04:40:33.152Z,15.95
2018-09-13T04:43:57.608Z,17.98
2018-09-13T04:47:21.984Z,17.75
2018-09-13T04:50:46.598Z,20.70
2018-09-13T04:54:11.050Z,26.50
2018-09-13T04:57:35.616Z,21.87
2018-09-13T05:01:00.081Z,23.62
2018-09-13T05:04:25.548Z,27.17
2018-09-13T05:07:50.069Z,30.88
2018-09-13T05:11:14.482Z,21.57
2018-09-13T05:14:38.926Z,24.12
2018-09-13T05:18:03.468Z,25.48
2018-09-13T05:21:27.904Z,22.85
2018-09-13T05:24:52.328Z,28.90
2018-09-13T05:28:16.762Z,23.38
2018-09-13T05:31:41.235Z,22.52
2018-09-13T05:35:05.700Z,19.82
2018-09-13T05:38:30.195Z,18.98
2018-09-13T05:41:54.593Z,25.17
2018-09-13T05:45:19.002Z,20.88
2018-09-13T05:48:43.427Z,18.92
2018-09-13T05:52:07.989Z,18.07
2018-09-13T05:55:32.401Z,18.82
2018-09-13T05:58:57.470Z,22.75
2018-09-13T06:02:21.978Z,22.27
2018-09-13T06:05:46.457Z,21.17
2018-09-13T06:09:10.954Z,20.70
2018-09-13T06:12:35.380Z,24.32
2018-09-13T06:16:00.633Z,21.17
2018-09-13T06:19:28.805Z,26.05
2018-09-13T06:23:01.132Z,27.48
2018-09-13T06:26:25.623Z,26.12
2018-09-13T06:29:50.120Z,28.52
2018-09-13T06:33:14.617Z,32.83
2018-09-13T06:36:39.106Z,33.30
2018-09-13T06:40:03.508Z,29.57
2018-09-13T06:43:27.908Z,31.25
2018-09-13T06:46:52.344Z,30.77
2018-09-13T06:50:16.759Z,33.70
2018-09-13T06:53:41.211Z,38.73
2018-09-13T06:57:05.697Z,32.00
2018-09-13T07:00:30.176Z,35.63
2018-09-13T07:03:54.591Z,39.33
2018-09-13T07:07:19.157Z,42.93
2018-09-13T07:10:43.685Z,38.05
2018-09-13T07:14:08.120Z,45.48
2018-09-13T07:17:32.567Z,38.63
2018-09-13T07:20:57.855Z,43.28
2018-09-13T07:24:22.275Z,39.20
2018-09-13T07:27:46.744Z,41.28
2018-09-13T07:31:11.169Z,45.95
2018-09-13T07:34:35.597Z,42.48
2018-09-13T07:38:00.022Z,38.78
2018-09-13T07:41:24.467Z,45.83
2018-09-13T07:44:48.993Z,46.73
2018-09-13T07:48:13.458Z,40.10
2018-09-13T07:51:37.906Z,37.23
2018-09-13T07:55:02.344Z,49.00
2018-09-13T07:58:26.742Z,36.42
2018-09-13T08:01:51.136Z,36.03
2018-09-13T08:05:15.541Z,34.08
2018-09-13T08:08:39.970Z,32.48
2018-09-13T08:12:04.566Z,37.45
2018-09-13T08:15:28.879Z,32.35
2018-09-13T08:18:53.319Z,38.78
2018-09-13T08:22:17.740Z,30.32
2018-09-13T08:25:42.243Z,31.07
2018-09-13T08:29:06.649Z,30.95
2018-09-13T08:32:31.050Z,27.95
2018-09-13T08:35:55.504Z,30.80
2018-09-13T08:39:19.878Z,34.65
2018-09-13T08:42:44.268Z,35.92
2018-09-13T08:46:08.687Z,36.03
2018-09-13T08:49:33.134Z,38.75
2018-09-13T08:52:57.582Z,48.20
2018-09-13T08:56:22.023Z,47.03
2018-09-13T08:59:46.457Z,50.08
2018-09-13T09:03:10.929Z,47.93
2018-09-13T09:06:35.346Z,48.98
2018-09-13T09:09:59.788Z,45.15
2018-09-13T09:13:24.234Z,44.30
2018-09-13T09:16:48.683Z,37.95
2018-09-13T09:20:13.136Z,39.13
2018-09-13T09:23:37.613Z,34.65
2018-09-13T09:27:02.076Z,38.25
2018-09-13T09:30:26.519Z,41.55
2018-09-13T09:33:50.971Z,42.00
2018-09-13T09:37:15.418Z,42.70
2018-09-13T09:40:39.911Z,39.92
2018-09-13T09:44:04.386Z,37.63
2018-09-13T09:47:28.833Z,43.30
2018-09-13T09:50:53.261Z,36.28
2018-09-13T09:54:17.713Z,38.92
2018-09-13T09:57:43.653Z,33.10
2018-09-13T10:01:13.410Z,37.48
2018-09-13T10:04:37.945Z,38.60
2018-09-13T10:08:02.355Z,38.38
2018-09-13T10:11:26.885Z,36.83
2018-09-13T10:14:56.681Z,36.28
2018-09-13T10:18:26.376Z,36.13
2018-09-13T10:21:56.064Z,31.37
2018-09-13T10:25:25.575Z,29.52
2018-09-13T10:28:55.235Z,24.87
2018-09-13T10:32:24.822Z,23.98
2018-09-13T10:35:54.520Z,20.40
2018-09-13T10:39:24.099Z,16.93
2018-09-13T10:42:53.747Z,14.25
2018-09-13T10:46:25.030Z,11.80
2018-09-13T10:49:54.565Z,9.80
2018-09-13T10:53:26.719Z,14.00
2018-09-13T10:56:51.144Z,9.90
2018-09-13T11:00:15.683Z,8.40
2018-09-13T11:03:40.150Z,12.80
2018-09-13T11:07:04.594Z,9.25
2018-09-13T11:10:30.053Z,8.83
2018-09-13T11:13:58.919Z,9.60
2018-09-13T11:17:24.544Z,10.93
2018-09-13T11:20:49.000Z,10.05
2018-09-13T11:24:13.460Z,10.30
2018-09-13T11:27:37.867Z,13.45
2018-09-13T11:31:02.279Z,16.45
2018-09-13T11:34:26.809Z,15.28
2018-09-13T11:37:51.284Z,14.33
2018-09-13T11:41:15.704Z,10.60
2018-09-13T11:44:40.151Z,11.45
2018-09-13T11:48:04.635Z,14.78
2018-09-13T11:51:29.104Z,9.30
2018-09-13T11:54:53.521Z,14.73
2018-09-13T11:58:17.949Z,19.20
2018-09-13T12:01:42.379Z,15.78
2018-09-13T12:05:06.792Z,11.85
2018-09-13T12:08:31.253Z,9.65
2018-09-13T12:11:55.687Z,8.98
2018-09-13T12:15:20.121Z,6.67
2018-09-13T12:18:44.532Z,7.45
2018-09-13T12:22:08.965Z,7.10
2018-09-13T12:25:33.417Z,10.60
2018-09-13T12:29:21.891Z,6.67
2018-09-13T12:32:46.511Z,11.20
2018-09-13T12:36:11.171Z,9.85
2018-09-13T12:39:35.665Z,9.40
2018-09-13T12:43:00.097Z,7.42
2018-09-13T12:46:24.474Z,7.55
2018-09-13T12:49:48.996Z,11.83
2018-09-13T12:53:13.522Z,8.58
2018-09-13T12:56:38.078Z,6.80
2018-09-13T13:00:02.465Z,10.45
2018-09-13T13:03:26.867Z,7.78
2018-09-13T13:06:51.720Z,8.33
2018-09-13T13:10:16.141Z,9.68
2018-09-13T13:13:40.570Z,12.78
2018-09-13T13:17:05.047Z,11.00
2018-09-13T13:20:29.489Z,9.08
2018-09-13T13:23:53.913Z,9.70
2018-09-13T13:27:18.460Z,8.65
2018-09-13T13:30:42.968Z,8.85
2018-09-13T13:34:07.609Z,5.53
2018-09-13T13:37:32.020Z,7.22
2018-09-13T13:40:56.440Z,11.30
2018-09-13T13:44:20.862Z,7.75
2018-09-13T13:47:45.314Z,7.22
2018-09-13T13:51:09.794Z,8.78
2018-09-13T13:54:34.198Z,6.08
2018-09-13T13:57:58.608Z,5.58
2018-09-13T14:01:23.069Z,6.58
2018-09-13T14:04:47.448Z,4.35
2018-09-13T14:08:11.895Z,7.50
2018-09-13T14:11:36.346Z,4.00
2018-09-13T14:15:00.748Z,5.55
2018-09-13T14:18:25.239Z,4.92
2018-09-13T14:21:49.693Z,4.45
2018-09-13T14:25:14.175Z,6.05
2018-09-13T14:28:38.602Z,6.58
2018-09-13T14:32:03.149Z,5.30
2018-09-13T14:35:27.640Z,8.25
2018-09-13T14:38:52.113Z,7.97
2018-09-13T14:42:16.587Z,8.60
2018-09-13T14:45:41.027Z,8.35
2018-09-13T14:49:05.706Z,9.70
2018-09-13T14:52:30.136Z,4.90
2018-09-13T14:55:54.551Z,9.10
2018-09-13T14:59:19.045Z,8.68
2018-09-13T15:02:43.586Z,5.40
2018-09-13T15:06:08.038Z,3.42
2018-09-13T15:09:32.487Z,4.00
2018-09-13T15:12:57.133Z,5.15
2018-09-13T15:16:22.320Z,5.95
2018-09-13T15:19:46.774Z,3.80
2018-09-13T15:23:11.276Z,11.83
2018-09-13T15:26:35.804Z,7.97
2018-09-13T15:30:00.256Z,9.35
2018-09-13T15:33:24.660Z,6.42
2018-09-13T15:36:49.152Z,8.68
2018-09-13T15:40:13.605Z,4.33
2018-09-13T15:43:38.158Z,4.78
2018-09-13T15:47:02.966Z,4.58
2018-09-13T15:50:27.436Z,2.47
2018-09-13T15:53:51.887Z,7.20
2018-09-13T15:57:16.415Z,4.60
2018-09-13T16:00:41.036Z,6.45
2018-09-13T16:04:05.557Z,5.42
2018-09-13T16:07:30.147Z,4.42
2018-09-13T16:10:54.578Z,4.62
2018-09-13T16:14:18.988Z,3.55
2018-09-13T16:17:43.464Z,1.75
2018-09-13T16:21:08.548Z,5.42
2018-09-13T16:24:32.978Z,3.67
2018-09-13T16:27:57.436Z,4.35
2018-09-13T16:31:22.059Z,5.60
2018-09-13T16:34:46.613Z,4.53
2018-09-13T16:38:16.316Z,3.30
2018-09-13T16:41:45.883Z,3.40
2018-09-13T16:45:11.031Z,3.33
2018-09-13T16:48:40.714Z,4.17
2018-09-13T16:52:05.216Z,4.55
2018-09-13T16:55:29.786Z,3.77
2018-09-13T16:58:54.242Z,6.83
2018-09-13T17:02:18.747Z,4.60
2018-09-13T17:05:43.271Z,3.90
2018-09-13T17:09:10.179Z,5.80
2018-09-13T17:12:34.662Z,2.77
2018-09-13T17:15:59.935Z,5.15
2018-09-13T17:19:24.441Z,4.37
2018-09-13T17:22:49.001Z,3.47
2018-09-13T17:26:13.550Z,7.72
2018-09-13T17:29:38.075Z,4.40
2018-09-13T17:33:02.557Z,4.53
2018-09-13T17:36:27.123Z,2.87
2018-09-13T17:39:51.579Z,3.33
2018-09-13T17:43:16.043Z,6.90
2018-09-13T17:46:41.282Z,5.37
2018-09-13T17:50:06.663Z,4.70
2018-09-13T17:53:31.153Z,2.75
2018-09-13T17:56:55.704Z,6.90
2018-09-13T18:00:20.228Z,5.20
2018-09-13T18:03:44.882Z,6.33
2018-09-13T18:07:09.364Z,4.33
2018-09-13T18:10:33.889Z,4.53
2018-09-13T18:13:58.445Z,3.42
2018-09-13T18:17:22.944Z,3.92
2018-09-13T18:20:48.069Z,4.55
2018-09-13T18:24:12.564Z,7.35
2018-09-13T18:27:36.996Z,9.08
2018-09-13T18:31:01.659Z,4.45
2018-09-13T18:34:26.126Z,6.95
2018-09-13T18:37:50.648Z,6.37
2018-09-13T18:41:15.203Z,7.05
2018-09-13T18:44:39.663Z,7.83
2018-09-13T18:48:04.142Z,6.35
2018-09-13T18:51:28.929Z,6.58
2018-09-13T18:54:53.414Z,4.70
2018-09-13T18:58:17.955Z,7.87
2018-09-13T19:01:42.394Z,4.72
2018-09-13T19:05:07.184Z,5.85
2018-09-13T19:08:31.693Z,6.60
2018-09-13T19:11:56.147Z,5.42
2018-09-13T19:15:20.628Z,5.65
2018-09-13T19:18:45.113Z,5.20
2018-09-13T19:22:09.535Z,4.22
2018-09-13T19:25:33.998Z,5.60
2018-09-13T19:28:58.455Z,5.20
2018-09-13T19:32:22.897Z,7.90
2018-09-13T19:35:47.326Z,7.92
2018-09-13T19:39:12.943Z,4.72
2018-09-13T19:42:37.455Z,7.95
2018-09-13T19:46:02.248Z,7.53
2018-09-13T19:49:26.795Z,5.70
2018-09-13T19:52:51.271Z,4.97
2018-09-13T19:56:15.715Z,6.15
2018-09-13T19:59:40.164Z,10.18
2018-09-13T20:03:04.612Z,4.00
2018-09-13T20:06:29.013Z,7.75
2018-09-13T20:09:53.469Z,5.85
2018-09-13T20:13:18.020Z,6.05
2018-09-13T20:16:42.492Z,6.47
2018-09-13T20:20:07.380Z,7.62
2018-09-13T20:23:31.880Z,6.30
2018-09-13T20:26:56.372Z,4.85
2018-09-13T20:30:20.922Z,5.43
2018-09-13T20:33:45.345Z,6.25
2018-09-13T20:37:09.927Z,5.42
2018-09-13T20:40:34.339Z,8.53
2018-09-13T20:43:59.014Z,5.40
2018-09-13T20:47:23.420Z,5.50
2018-09-13T20:50:47.806Z,8.60
2018-09-13T20:54:12.218Z,5.10
2018-09-13T20:57:36.645Z,5.70
2018-09-13T21:01:01.042Z,7.73
2018-09-13T21:04:25.458Z,10.70
2018-09-13T21:07:49.861Z,9.40
2018-09-13T21:11:14.321Z,7.50
2018-09-13T21:14:38.734Z,8.50
2018-09-13T21:18:03.251Z,7.33
2018-09-13T21:21:27.788Z,8.87
2018-09-13T21:24:52.192Z,6.83
2018-09-13T21:28:16.647Z,7.03
2018-09-13T21:31:41.160Z,7.50
2018-09-13T21:35:05.582Z,5.77
2018-09-13T21:38:30.006Z,9.90
2018-09-13T21:41:54.424Z,6.97
2018-09-13T21:45:18.845Z,6.75
2018-09-13T21:48:43.240Z,6.70
2018-09-13T21:52:07.837Z,6.40
2018-09-13T21:55:32.251Z,5.90
2018-09-13T21:58:56.749Z,7.70
2018-09-13T22:02:21.050Z,8.80
2018-09-13T22:05:45.442Z,4.90
2018-09-13T22:09:10.926Z,4.90
2018-09-13T22:12:35.346Z,8.93
2018-09-13T22:16:00.105Z,6.93
2018-09-13T22:19:24.526Z,7.37
2018-09-13T22:22:48.971Z,9.80
2018-09-13T22:29:55.705Z,9.23
2018-09-13T22:33:20.104Z,6.80
2018-09-13T22:36:44.543Z,5.83
2018-09-13T22:40:09.080Z,6.17
2018-09-13T22:43:38.711Z,8.93
2018-09-13T22:47:03.131Z,6.20
2018-09-13T22:50:27.651Z,7.13
2018-09-13T22:53:52.160Z,6.33
2018-09-13T22:57:16.582Z,11.77
2018-09-13T23:00:41.046Z,10.97
2018-09-13T23:04:05.459Z,8.10
2018-09-13T23:07:32.390Z,7.03
2018-09-13T23:10:56.825Z,10.23
2018-09-13T23:14:21.254Z,7.87
2018-09-13T23:17:46.323Z,7.20
2018-09-13T23:21:11.950Z,7.77
2018-09-13T23:24:36.338Z,9.67
2018-09-13T23:28:00.873Z,12.37
2018-09-13T23:31:25.327Z,10.03
2018-09-13T23:34:49.734Z,15.20
2018-09-13T23:38:14.264Z,10.80
2018-09-13T23:41:39.620Z,9.83
2018-09-13T23:45:04.076Z,7.17
2018-09-13T23:48:28.502Z,8.67
2018-09-13T23:51:53.017Z,6.53
2018-09-13T23:55:17.438Z,7.10
2018-09-13T23:58:41.874Z,8.70
